createdAt,value
2023-03-18T00:02:39.839Z,10.38
2023-03-18T00:05:30.950Z,9.90
2023-03-18T00:08:20.246Z,9.88
2023-03-18T00:11:12.159Z,9.60
2023-03-18T00:14:01.406Z,9.68
2023-03-18T00:16:51.704Z,9.57
2023-03-18T00:19:40.971Z,8.15
2023-03-18T00:22:30.835Z,8.85
2023-03-18T00:25:20.095Z,8.68
2023-03-18T00:28:09.715Z,9.07
2023-03-18T00:31:09.944Z,9.40
2023-03-18T00:33:59.214Z,8.63
2023-03-18T00:36:51.842Z,9.10
2023-03-18T00:39:45.323Z,9.05
2023-03-18T00:42:40.098Z,8.18
2023-03-18T00:45:30.810Z,8.63
2023-03-18T00:48:20.040Z,8.90
2023-03-18T00:51:09.259Z,8.30
2023-03-18T00:54:01.611Z,8.65
2023-03-18T00:56:51.363Z,8.93
2023-03-18T00:59:40.695Z,8.90
2023-03-18T01:02:30.748Z,8.50
2023-03-18T01:05:20.848Z,13.98
2023-03-18T01:08:11.206Z,11.38
2023-03-18T01:11:00.513Z,10.05
2023-03-18T01:13:51.623Z,11.32
2023-03-18T01:16:41.148Z,9.48
2023-03-18T01:19:30.926Z,9.60
2023-03-18T01:22:20.549Z,10.10
2023-03-18T01:25:13.615Z,11.02
2023-03-18T01:28:03.099Z,11.05
2023-03-18T01:30:52.459Z,11.15
2023-03-18T01:33:44.186Z,12.80
2023-03-18T01:36:34.338Z,12.45
2023-03-18T01:39:29.292Z,13.63
2023-03-18T01:42:23.258Z,13.80
2023-03-18T01:45:19.083Z,14.95
2023-03-18T01:48:16.758Z,16.00
2023-03-18T01:51:11.107Z,15.98
2023-03-18T01:54:04.694Z,16.20
2023-03-18T01:56:54.861Z,17.65
2023-03-18T01:59:45.187Z,18.38
2023-03-18T02:02:35.003Z,17.33
2023-03-18T02:05:29.704Z,15.85
2023-03-18T02:08:19.829Z,15.07
2023-03-18T02:11:11.321Z,14.93
2023-03-18T02:14:02.074Z,15.32
2023-03-18T02:17:16.338Z,15.02
2023-03-18T02:20:32.421Z,14.95
2023-03-18T02:23:50.017Z,14.82
2023-03-18T02:27:01.106Z,15.93
2023-03-18T02:30:02.710Z,16.40
2023-03-18T02:32:58.107Z,16.85
2023-03-18T02:35:50.767Z,16.45
2023-03-18T02:41:42.744Z,17.45
2023-03-18T02:44:32.899Z,16.95
2023-03-18T02:47:48.373Z,17.73
2023-03-18T02:50:37.565Z,18.25
2023-03-18T02:53:27.303Z,16.20
2023-03-18T02:56:17.068Z,16.52
2023-03-18T02:59:07.368Z,15.77
2023-03-18T03:01:57.064Z,15.73
2023-03-18T03:04:46.390Z,16.05
2023-03-18T03:07:38.097Z,15.45
2023-03-18T03:10:29.428Z,15.40
2023-03-18T03:13:19.772Z,14.85
2023-03-18T03:16:10.374Z,14.65
2023-03-18T03:18:59.942Z,14.73
2023-03-18T03:21:49.459Z,15.20
2023-03-18T03:24:39.047Z,14.27
2023-03-18T03:27:29.255Z,14.40
2023-03-18T03:30:19.446Z,14.00
2023-03-18T03:33:09.866Z,15.07
2023-03-18T03:35:59.258Z,14.77
2023-03-18T03:38:48.572Z,13.98
2023-03-18T03:41:37.828Z,14.43
2023-03-18T03:44:27.051Z,13.82
2023-03-18T03:47:16.393Z,14.85
2023-03-18T03:50:07.041Z,14.55
2023-03-18T03:52:56.986Z,13.70
2023-03-18T03:55:47.742Z,14.52
2023-03-18T03:58:37.378Z,13.88
2023-03-18T04:01:28.277Z,12.95
2023-03-18T04:04:20.073Z,12.77
2023-03-18T04:07:10.046Z,13.15
2023-03-18T04:09:59.427Z,13.35
2023-03-18T04:12:49.760Z,13.25
2023-03-18T04:15:39.424Z,13.70
2023-03-18T04:21:21.320Z,13.10
2023-03-18T04:24:15.086Z,12.40
2023-03-18T04:27:06.824Z,13.07
2023-03-18T04:29:56.274Z,13.15
2023-03-18T04:32:52.871Z,12.63
2023-03-18T04:35:44.602Z,13.20
2023-03-18T04:38:36.163Z,12.32
2023-03-18T04:41:27.293Z,12.57
2023-03-18T04:44:20.318Z,13.55
2023-03-18T04:47:14.716Z,12.50
2023-03-18T04:50:05.581Z,13.27
2023-03-18T04:52:54.979Z,12.40
2023-03-18T04:55:51.779Z,12.02
2023-03-18T04:58:45.956Z,12.05
2023-03-18T05:01:40.609Z,12.70
2023-03-18T05:04:29.974Z,13.20
2023-03-18T05:07:20.044Z,13.02
2023-03-18T05:10:19.901Z,12.02
2023-03-18T05:13:10.546Z,12.88
2023-03-18T05:16:00.237Z,11.88
2023-03-18T05:18:50.454Z,11.75
2023-03-18T05:21:39.967Z,11.52
2023-03-18T05:24:29.697Z,11.75
2023-03-18T05:27:20.481Z,12.07
2023-03-18T05:30:20.123Z,11.52
2023-03-18T05:33:15.814Z,10.35
2023-03-18T05:36:14.317Z,10.98
2023-03-18T05:39:15.134Z,11.23
2023-03-18T05:42:05.722Z,11.77
2023-03-18T05:44:57.993Z,11.43
2023-03-18T05:47:48.150Z,11.57
2023-03-18T05:50:43.018Z,10.82
2023-03-18T05:53:37.932Z,11.38
2023-03-18T05:56:47.776Z,11.23
2023-03-18T05:59:37.692Z,11.40
2023-03-18T06:02:28.808Z,10.07
2023-03-18T06:05:19.151Z,10.43
2023-03-18T06:08:09.036Z,10.82
2023-03-18T06:10:59.841Z,10.73
2023-03-18T06:13:50.686Z,10.85
2023-03-18T06:16:41.194Z,9.90
2023-03-18T06:19:31.782Z,10.60
2023-03-18T06:22:21.075Z,10.45
2023-03-18T06:25:11.042Z,9.57
2023-03-18T06:28:02.469Z,10.65
2023-03-18T06:30:52.735Z,10.13
2023-03-18T06:33:42.537Z,10.07
2023-03-18T06:36:34.527Z,10.35
2023-03-18T06:39:27.186Z,10.75
2023-03-18T06:42:17.057Z,9.82
2023-03-18T06:45:19.446Z,10.10
2023-03-18T06:48:14.722Z,9.95
2023-03-18T06:51:05.956Z,10.43
2023-03-18T06:53:58.841Z,9.70
2023-03-18T06:56:51.290Z,8.65
2023-03-18T06:59:41.018Z,10.10
2023-03-18T07:02:30.459Z,9.80
2023-03-18T07:05:21.910Z,9.57
2023-03-18T07:08:12.142Z,9.55
2023-03-18T07:11:02.015Z,10.45
2023-03-18T07:13:51.466Z,10.25
2023-03-18T07:16:49.664Z,8.75
2023-03-18T07:19:38.850Z,10.25
2023-03-18T07:22:28.079Z,9.57
2023-03-18T07:25:17.639Z,8.70
2023-03-18T07:28:06.880Z,9.10
2023-03-18T07:30:56.181Z,9.63
2023-03-18T07:33:45.754Z,9.55
2023-03-18T07:36:34.923Z,10.02
2023-03-18T07:39:24.238Z,9.45
2023-03-18T07:42:13.628Z,9.57
2023-03-18T07:45:08.833Z,9.63
2023-03-18T07:47:58.241Z,8.55
2023-03-18T07:50:47.507Z,8.70
2023-03-18T07:53:36.903Z,9.88
2023-03-18T07:56:26.957Z,8.07
2023-03-18T07:59:18.715Z,9.13
2023-03-18T08:02:09.716Z,9.23
2023-03-18T08:04:59.911Z,9.02
2023-03-18T08:07:49.690Z,8.15
2023-03-18T08:10:38.861Z,7.90
2023-03-18T08:13:28.358Z,9.57
2023-03-18T08:16:17.765Z,9.07
2023-03-18T08:19:07.408Z,8.18
2023-03-18T08:21:56.774Z,8.95
2023-03-18T08:24:46.553Z,9.40
2023-03-18T08:27:36.013Z,8.55
2023-03-18T08:30:29.569Z,8.98
2023-03-18T08:33:18.873Z,8.10
2023-03-18T08:36:09.789Z,8.30
2023-03-18T08:38:59.007Z,8.50
2023-03-18T08:41:48.433Z,7.70
2023-03-18T08:44:37.964Z,7.18
2023-03-18T08:47:27.164Z,8.20
2023-03-18T08:50:17.016Z,7.38
2023-03-18T08:53:06.823Z,8.55
2023-03-18T08:55:55.970Z,7.72
2023-03-18T08:58:49.261Z,8.85
2023-03-18T09:01:39.263Z,7.53
2023-03-18T09:04:28.584Z,8.07
2023-03-18T09:07:19.107Z,8.00
2023-03-18T09:10:10.503Z,8.30
2023-03-18T09:13:00.353Z,6.78
2023-03-18T09:15:49.692Z,8.13
2023-03-18T09:18:38.918Z,7.75
2023-03-18T09:21:28.185Z,6.93
2023-03-18T09:24:17.530Z,8.25
2023-03-18T09:27:06.798Z,7.55
2023-03-18T09:29:57.691Z,7.20
2023-03-18T09:32:47.074Z,7.93
2023-03-18T09:35:37.267Z,6.53
2023-03-18T09:38:28.135Z,6.47
2023-03-18T09:41:59.142Z,7.95
2023-03-18T09:44:55.605Z,7.22
2023-03-18T09:48:01.678Z,7.00
2023-03-18T09:51:02.284Z,6.97
2023-03-18T09:53:59.431Z,7.05
2023-03-18T09:56:49.818Z,7.22
2023-03-18T09:59:45.734Z,6.82
2023-03-18T10:03:10.715Z,7.03
2023-03-18T10:06:20.618Z,6.65
2023-03-18T10:09:31.566Z,7.32
2023-03-18T10:12:43.503Z,6.68
2023-03-18T10:15:42.588Z,7.07
2023-03-18T10:18:39.862Z,6.60
2023-03-18T10:21:47.639Z,6.28
2023-03-18T10:24:49.252Z,7.03
2023-03-18T10:28:00.174Z,6.20
2023-03-18T10:31:26.520Z,6.50
2023-03-18T10:34:20.363Z,6.63
2023-03-18T10:37:27.963Z,6.15
2023-03-18T10:40:19.674Z,6.65
2023-03-18T10:43:25.708Z,6.45
2023-03-18T10:46:17.876Z,6.32
2023-03-18T10:49:24.941Z,6.47
2023-03-18T10:52:26.037Z,6.68
2023-03-18T10:55:18.882Z,6.80
2023-03-18T10:58:21.121Z,6.25
2023-03-18T11:01:16.344Z,6.82
2023-03-18T11:04:08.418Z,6.60
2023-03-18T11:07:01.618Z,5.78
2023-03-18T11:12:40.000Z,6.43
2023-03-18T11:15:29.961Z,5.88
2023-03-18T11:18:24.743Z,5.97
2023-03-18T11:21:16.046Z,6.40
2023-03-18T11:24:22.006Z,6.45
2023-03-18T11:27:17.697Z,6.50
2023-03-18T11:30:41.409Z,6.38
2023-03-18T11:36:29.593Z,5.95
2023-03-18T11:39:20.409Z,6.00
2023-03-18T11:42:22.812Z,6.20
2023-03-18T11:45:36.857Z,6.15
2023-03-18T11:48:37.979Z,6.22
2023-03-18T11:51:40.591Z,6.18
2023-03-18T11:54:52.199Z,7.03
2023-03-18T11:58:22.935Z,6.20
2023-03-18T12:01:18.498Z,6.05
2023-03-18T12:04:21.068Z,6.43
2023-03-18T12:07:22.869Z,6.57
2023-03-18T12:10:37.380Z,5.75
2023-03-18T12:13:37.647Z,5.80
2023-03-18T12:16:42.420Z,6.05
2023-03-18T12:19:57.144Z,6.68
2023-03-18T12:22:57.479Z,6.63
2023-03-18T12:26:17.624Z,5.93
2023-03-18T12:29:39.695Z,5.63
2023-03-18T12:33:15.296Z,5.57
2023-03-18T12:36:20.106Z,5.65
2023-03-18T12:39:28.003Z,5.47
2023-03-18T12:42:38.494Z,5.50
2023-03-18T12:45:34.377Z,6.47
2023-03-18T12:48:43.737Z,5.55
2023-03-18T12:52:03.863Z,5.70
2023-03-18T12:55:17.251Z,5.65
2023-03-18T12:58:15.335Z,5.40
2023-03-18T13:01:11.417Z,5.35
2023-03-18T13:04:13.013Z,5.70
2023-03-18T13:07:17.832Z,5.32
2023-03-18T13:10:26.005Z,5.60
2023-03-18T13:13:16.394Z,5.28
2023-03-18T13:16:07.444Z,5.85
2023-03-18T13:18:59.081Z,5.60
2023-03-18T13:21:54.655Z,5.32
2023-03-18T13:24:55.028Z,5.45
2023-03-18T13:28:05.299Z,5.43
2023-03-18T13:31:02.417Z,5.15
2023-03-18T13:34:09.604Z,5.50
2023-03-18T13:37:30.396Z,5.82
2023-03-18T13:40:55.670Z,5.70
2023-03-18T13:43:50.315Z,5.35
2023-03-18T13:46:39.683Z,5.32
2023-03-18T13:49:32.229Z,5.57
2023-03-18T13:52:42.926Z,4.93
2023-03-18T13:56:02.716Z,5.70
2023-03-18T13:58:55.132Z,5.40
2023-03-18T14:01:53.227Z,5.87
2023-03-18T14:04:50.865Z,5.43
2023-03-18T14:07:50.554Z,5.70
2023-03-18T14:10:39.810Z,5.45
2023-03-18T14:13:30.569Z,6.22
2023-03-18T14:16:25.660Z,5.05
2023-03-18T14:19:22.949Z,4.90
2023-03-18T14:22:21.636Z,4.97
2023-03-18T14:25:21.226Z,5.45
2023-03-18T14:28:14.392Z,5.05
2023-03-18T14:31:27.425Z,5.40
2023-03-18T14:34:19.752Z,5.13
2023-03-18T14:37:21.408Z,5.70
2023-03-18T14:40:19.555Z,5.35
2023-03-18T14:43:23.913Z,4.72
2023-03-18T14:46:32.338Z,5.05
2023-03-18T14:49:45.088Z,5.75
2023-03-18T14:52:38.664Z,5.03
2023-03-18T14:55:39.574Z,5.38
2023-03-18T14:58:29.460Z,5.25
2023-03-18T15:01:18.775Z,4.78
2023-03-18T15:04:16.709Z,5.43
2023-03-18T15:07:08.461Z,5.55
2023-03-18T15:09:58.022Z,5.40
2023-03-18T15:13:05.739Z,4.95
2023-03-18T15:15:57.817Z,4.45
2023-03-18T15:18:54.077Z,4.85
2023-03-18T15:21:43.603Z,4.75
2023-03-18T15:24:33.707Z,5.43
2023-03-18T15:27:23.843Z,5.03
2023-03-18T15:30:28.115Z,4.72
2023-03-18T15:33:23.655Z,5.03
2023-03-18T15:36:17.580Z,4.78
2023-03-18T15:39:30.739Z,4.97
2023-03-18T15:42:21.406Z,5.10
2023-03-18T15:45:19.423Z,4.95
2023-03-18T15:48:20.355Z,5.15
2023-03-18T15:51:28.057Z,4.90
2023-03-18T15:54:42.855Z,4.97
2023-03-18T15:57:41.032Z,4.60
2023-03-18T16:00:33.006Z,4.75
2023-03-18T16:03:25.757Z,4.68
2023-03-18T16:06:16.226Z,4.57
2023-03-18T16:09:19.417Z,5.32
2023-03-18T16:12:18.500Z,4.30
2023-03-18T16:15:08.960Z,4.97
2023-03-18T16:17:58.768Z,4.90
2023-03-18T16:20:49.196Z,4.45
2023-03-18T16:23:38.659Z,4.35
2023-03-18T16:26:28.400Z,4.78
2023-03-18T16:29:22.102Z,4.93
2023-03-18T16:32:13.924Z,4.43
2023-03-18T16:35:03.894Z,4.97
2023-03-18T16:37:54.201Z,5.10
2023-03-18T16:40:44.513Z,5.25
2023-03-18T16:43:34.655Z,4.25
2023-03-18T16:46:25.947Z,5.00
2023-03-18T16:49:24.049Z,5.15
2023-03-18T16:52:15.192Z,3.85
2023-03-18T16:55:04.437Z,4.50
2023-03-18T16:58:16.926Z,4.78
2023-03-18T17:01:08.287Z,4.63
2023-03-18T17:03:57.683Z,4.40
2023-03-18T17:06:47.229Z,4.50
2023-03-18T17:09:36.495Z,4.72
2023-03-18T17:12:27.282Z,4.50
2023-03-18T17:15:19.570Z,4.80
2023-03-18T17:18:17.052Z,5.30
2023-03-18T17:21:06.565Z,4.97
2023-03-18T17:23:57.225Z,4.50
2023-03-18T17:26:49.232Z,4.80
2023-03-18T17:29:38.666Z,4.22
2023-03-18T17:32:28.396Z,4.95
2023-03-18T17:35:21.504Z,5.05
2023-03-18T17:38:11.073Z,5.28
2023-03-18T17:41:01.614Z,5.15
2023-03-18T17:43:52.098Z,5.20
2023-03-18T17:46:42.152Z,5.00
2023-03-18T17:49:31.593Z,9.10
2023-03-18T17:52:22.181Z,13.05
2023-03-18T17:55:17.319Z,9.88
2023-03-18T17:58:21.807Z,8.63
2023-03-18T18:01:15.326Z,7.75
2023-03-18T18:04:06.007Z,7.13
2023-03-18T18:06:55.428Z,6.60
2023-03-18T18:09:44.598Z,6.30
2023-03-18T18:12:33.838Z,5.55
2023-03-18T18:15:28.661Z,5.15
2023-03-18T18:18:27.313Z,5.28
2023-03-18T18:21:18.785Z,16.42
2023-03-18T18:24:34.746Z,16.13
2023-03-18T18:27:24.416Z,15.38
2023-03-18T18:30:19.243Z,10.40
2023-03-18T18:33:08.537Z,11.57
2023-03-18T18:35:58.091Z,20.90
2023-03-18T18:38:47.327Z,18.23
2023-03-18T18:41:36.955Z,35.38
2023-03-18T18:44:26.223Z,18.73
2023-03-18T18:47:24.396Z,17.85
2023-03-18T18:50:22.569Z,18.00
2023-03-18T18:53:23.200Z,15.38
2023-03-18T18:56:36.326Z,9.45
2023-03-18T18:59:33.247Z,7.30
2023-03-18T19:02:34.753Z,6.43
2023-03-18T19:05:24.618Z,6.07
2023-03-18T19:08:37.666Z,4.95
2023-03-18T19:11:28.356Z,6.10
2023-03-18T19:14:25.386Z,55.20
2023-03-18T19:17:21.051Z,143.07
2023-03-18T19:20:31.640Z,49.25
2023-03-18T19:23:26.064Z,35.40
2023-03-18T19:26:20.162Z,24.38
2023-03-18T19:29:11.785Z,16.50
2023-03-18T19:32:02.344Z,19.15
2023-03-18T19:34:53.258Z,15.10
2023-03-18T19:37:45.739Z,13.23
2023-03-18T19:40:35.204Z,18.13
2023-03-18T19:43:25.273Z,19.55
2023-03-18T19:46:24.840Z,22.17
2023-03-18T19:49:25.366Z,13.52
2023-03-18T19:52:23.012Z,12.70
2023-03-18T19:55:16.789Z,10.20
2023-03-18T19:58:06.101Z,8.20
2023-03-18T20:00:56.214Z,7.50
2023-03-18T20:03:45.667Z,7.50
2023-03-18T20:06:34.863Z,6.93
2023-03-18T20:09:26.076Z,7.38
2023-03-18T20:12:36.150Z,6.28
2023-03-18T20:15:34.063Z,5.93
2023-03-18T20:18:23.528Z,5.43
2023-03-18T20:21:30.597Z,5.20
2023-03-18T20:24:25.378Z,39.75
2023-03-18T20:27:14.630Z,88.85
2023-03-18T20:30:07.139Z,50.25
2023-03-18T20:32:56.757Z,54.42
2023-03-18T20:35:48.138Z,66.50
2023-03-18T20:38:40.130Z,105.85
2023-03-18T20:41:29.460Z,68.57
2023-03-18T20:44:18.677Z,62.30
2023-03-18T20:47:07.888Z,141.55
2023-03-18T20:49:57.140Z,228.25
2023-03-18T20:52:48.346Z,105.45
2023-03-18T20:55:37.641Z,91.15
2023-03-18T20:58:29.004Z,71.97
2023-03-18T21:01:19.273Z,59.88
2023-03-18T21:04:12.917Z,52.35
2023-03-18T21:07:02.625Z,52.42
2023-03-18T21:09:52.939Z,53.45
2023-03-18T21:12:42.143Z,53.40
2023-03-18T21:15:35.040Z,55.17
2023-03-18T21:18:24.748Z,55.15
2023-03-18T21:21:31.810Z,56.22
2023-03-18T21:24:28.448Z,54.25
2023-03-18T21:27:22.682Z,55.35
2023-03-18T21:30:14.843Z,54.30
2023-03-18T21:33:04.373Z,54.50
2023-03-18T21:35:57.792Z,52.97
2023-03-18T21:38:47.328Z,53.30
2023-03-18T21:41:37.313Z,51.72
2023-03-18T21:44:26.919Z,51.47
2023-03-18T21:47:18.750Z,52.80
2023-03-18T21:50:08.837Z,51.88
2023-03-18T21:53:00.137Z,50.40
2023-03-18T21:55:50.758Z,50.78
2023-03-18T21:58:39.929Z,50.40
2023-03-18T22:01:33.124Z,51.08
2023-03-18T22:04:23.218Z,50.40
2023-03-18T22:07:16.285Z,50.15
2023-03-18T22:10:07.757Z,49.53
2023-03-18T22:12:57.018Z,50.92
2023-03-18T22:15:48.594Z,49.42
2023-03-18T22:18:37.815Z,49.90
2023-03-18T22:21:29.360Z,48.70
2023-03-18T22:24:18.691Z,49.08
2023-03-18T22:27:11.950Z,53.97
2023-03-18T22:30:02.207Z,50.35
2023-03-18T22:32:52.731Z,54.22
2023-03-18T22:35:42.102Z,50.25
2023-03-18T22:38:32.817Z,48.53
2023-03-18T22:41:25.062Z,50.55
2023-03-18T22:44:24.460Z,50.43
2023-03-18T22:47:18.190Z,48.35
2023-03-18T22:50:07.868Z,34.20
2023-03-18T22:53:03.581Z,18.08
2023-03-18T22:55:58.079Z,10.57
2023-03-18T22:58:47.389Z,7.50
2023-03-18T23:01:36.644Z,5.75
2023-03-18T23:04:25.834Z,5.15
2023-03-18T23:07:34.088Z,4.85
2023-03-18T23:10:23.497Z,6.45
2023-03-18T23:13:37.200Z,5.97
2023-03-18T23:16:27.076Z,6.53
2023-03-18T23:19:16.420Z,6.15
2023-03-18T23:22:05.646Z,6.32
2023-03-18T23:24:55.809Z,5.43
2023-03-18T23:27:46.014Z,5.55
2023-03-18T23:30:37.454Z,5.68
2023-03-18T23:33:26.762Z,5.80
2023-03-18T23:36:16.121Z,5.53
2023-03-18T23:39:05.837Z,5.60
2023-03-18T23:41:55.201Z,5.85
2023-03-18T23:44:45.310Z,5.70
2023-03-18T23:47:34.577Z,5.57
2023-03-18T23:50:24.351Z,5.68
2023-03-18T23:53:13.535Z,5.85
2023-03-18T23:56:02.732Z,5.18
2023-03-18T23:58:52.065Z,5.38
